Pleasantville, IA (50225)

5:03 AM CST on February 09, 2016 (GMT -0600)
Rural Pleasantville | | Change Station
CLOSE
Current Station
Personal Weather Station
Location: Pleasantville, IA
Elevation: 843 ft
Nearby Weather Stations

Elev 843 ft 41.36 °N, 93.27 °W | Updated 5 minutes ago

Overcast
Overcast
12.0 °F
Feels Like 4 °F
N
4.7
Wind Variable Wind from NW

Today
High -- | Low -- °F
--% Chance of Precip.
Yesterday
High -- | Low -- °F
Precip. -- in
Pressure 30.00 in
Visibility 7.0 miles
Clouds Mostly Cloudy 1500 ft
Mostly Cloudy 2200 ft
Overcast 3300 ft
Windchill 4 °F
Dew Point 6 °F
Humidity 77%
Rainfall 0.00 in
Snow Depth Not available.
7:16 AM 5:38 PM
New Moon, 1% visible
METAR KOXV 091055Z AUTO 33019G26KT 7SM -SN BKN015 BKN022 OVC033 M10/M15 A3000 RMK AO2
Pressure 30.00 in
Visibility 7.0 miles
Clouds Mostly Cloudy 1500 ft
Mostly Cloudy 2200 ft
Overcast 3300 ft
Windchill 4 °F
Dew Point 6 °F
Humidity 77%
Rainfall 0.00 in
Snow Depth Not available.
7:16 AM 5:38 PM
New Moon, 1% visible
METAR KOXV 091055Z AUTO 33019G26KT 7SM -SN BKN015 BKN022 OVC033 M10/M15 A3000 RMK AO2

10-Day Weather Forecast

Almanac

Astronomy

Feb. 09, 2016 Rise Set
Actual Time
Civil Twilight
Nautical Twilight
Astronomical Twilight
Moon
Length of Visible Light
Length of Day
Tomorrow will be .
, % of the Moon is Illuminated

Today's Extremes

State Highs State Lows

Community

WunderPhotos

Upload Photos

1,891,565 photos uploaded!

WunderBlog® & News

Nearby

Air Quality

  Air Quality AQ Index Pollutant
Not available.

Snow Depth

Station Depth Elevation

Earthquake Activity

City Distance Mag. Time & Date
Minimum magnitude displayed is 2.5.

Coastal Water Temperatures

Place Temperature

Stations

Nearby Weather Stations

Station Location Temp. Windchill Dew Point Humidity Wind Precip. Elev Updated Type
                   

Watches & Warnings

There are currently no watches in effect.